< Cyclone 199207 1992 Season Cyclone 199209 >
Cyclone 199208 (FRAN)
General InformationTrack Information on Google MapsDetailed Wind InformationList of All Images || ResourceGoogle EarthGE AnimationAtom FeedGeoJSON
Detalied Best Track (Time Zone = UTC)
Year Month Day Hour Lat. Long. Pressure (hPa) Wind (kt) Class Image Chart
1992 3 9 06 -18.5 168.4 940 99 5 Image --
1992 3 9 12 -18.8 167.4 940 89 5 Image --
1992 3 9 18 -19.2 166.1 950 89 5 Image --
1992 3 10 00 -19.6 165.0 950 86 5 Image --
1992 3 10 06 -19.7 164.0 950 86 5 Image --
1992 3 10 12 -19.8 162.6 955 80 5 Image --
1992 3 10 18 -19.7 161.4 965 76 5 Image --
1992 3 11 00 -19.7 160.3 965 76 5 Image --
1992 3 11 06 -19.8 159.6 960 76 5 Image --
1992 3 11 12 -19.8 158.5 960 76 5 Image --
1992 3 11 18 -19.9 157.5 950 80 5 Image --
1992 3 12 00 -20.0 157.0 950 80 5 Image --
1992 3 12 06 -19.9 156.5 950 80 5 Image --
1992 3 12 12 -19.9 155.9 950 80 5 Image --
1992 3 12 18 -20.0 155.6 950 80 5 Image --
1992 3 13 00 -20.1 155.3 950 80 5 Image --
1992 3 13 06 -20.4 155.3 950 80 5 Image --
1992 3 13 12 -20.6 155.3 950 80 5 Image --
1992 3 13 18 -20.7 155.1 960 76 5 Image --
1992 3 14 00 -20.9 154.8 970 70 5 Image --
1992 3 14 06 -21.1 154.5 975 60 4 Image --
1992 3 14 12 -21.2 154.1 975 60 4 Image --
1992 3 14 18 -21.3 153.6 975 60 4 Image --
1992 3 15 00 -21.7 152.4 980 54 4 Image --
1992 3 15 06 -22.7 152.0 985 51 4 Image --
1992 3 15 12 -23.1 152.0 980 51 4 Image --
1992 3 15 18 -24.3 152.0 985 51 4 Image --
1992 3 16 00 -24.7 151.9 990 41 3 Image --
1992 3 16 06 -24.9 152.3 992 41 3 Image --
1992 3 16 12 -25.0 153.0 992 41 3 Image --
1992 3 16 18 -25.1 154.1 985 41 3 Image --
1992 3 17 00 -25.1 155.2 980 41 3 Image --
1992 3 17 06 -25.3 157.2 980 41 3 Image --
1992 3 17 12 -25.4 159.0 980 41 3 Image --
< Cyclone 199207 1992 Season Cyclone 199209 >

Help